sensor_id;sensor_type;location;lat;lon;timestamp;pressure;altitude;pressure_sealevel;temperature;humidity
7834;BME280;3962;42.696;23.354;2023-12-20T00:02:05;95542.09;;;0.72;100.00
7834;BME280;3962;42.696;23.354;2023-12-20T00:04:32;95537.38;;;0.78;100.00
7834;BME280;3962;42.696;23.354;2023-12-20T00:06:59;95535.69;;;0.77;100.00
7834;BME280;3962;42.696;23.354;2023-12-20T00:09:27;95538.81;;;0.68;100.00
7834;BME280;3962;42.696;23.354;2023-12-20T00:11:54;95537.34;;;0.63;100.00
7834;BME280;3962;42.696;23.354;2023-12-20T00:14:20;95528.91;;;0.73;100.00
7834;BME280;3962;42.696;23.354;2023-12-20T00:16:47;95533.00;;;0.79;100.00
7834;BME280;3962;42.696;23.354;2023-12-20T00:19:16;95530.84;;;0.70;100.00
7834;BME280;3962;42.696;23.354;2023-12-20T00:21:42;95532.28;;;0.60;100.00
7834;BME280;3962;42.696;23.354;2023-12-20T00:24:09;95531.09;;;0.50;100.00
7834;BME280;3962;42.696;23.354;2023-12-20T00:26:36;95519.31;;;0.26;100.00
7834;BME280;3962;42.696;23.354;2023-12-20T00:29:03;95510.38;;;-0.03;99.44
7834;BME280;3962;42.696;23.354;2023-12-20T00:31:30;95509.97;;;-0.12;100.00
7834;BME280;3962;42.696;23.354;2023-12-20T00:33:57;95508.91;;;-0.25;99.42
7834;BME280;3962;42.696;23.354;2023-12-20T00:36:25;95505.84;;;-0.50;99.76
7834;BME280;3962;42.696;23.354;2023-12-20T00:38:52;95506.91;;;-0.71;99.26
7834;BME280;3962;42.696;23.354;2023-12-20T00:41:19;95502.44;;;-0.86;100.00
7834;BME280;3962;42.696;23.354;2023-12-20T00:43:46;95502.25;;;-1.00;99.92
7834;BME280;3962;42.696;23.354;2023-12-20T00:46:13;95501.22;;;-1.14;100.00
7834;BME280;3962;42.696;23.354;2023-12-20T00:48:40;95502.28;;;-1.18;100.00
7834;BME280;3962;42.696;23.354;2023-12-20T00:51:07;95493.44;;;-1.33;100.00
7834;BME280;3962;42.696;23.354;2023-12-20T00:53:36;95492.25;;;-1.44;100.00
7834;BME280;3962;42.696;23.354;2023-12-20T00:56:03;95492.81;;;-1.56;100.00
7834;BME280;3962;42.696;23.354;2023-12-20T00:58:30;95485.41;;;-1.65;100.00
7834;BME280;3962;42.696;23.354;2023-12-20T01:00:57;95485.63;;;-1.70;100.00
7834;BME280;3962;42.696;23.354;2023-12-20T01:03:25;95482.25;;;-1.72;100.00
7834;BME280;3962;42.696;23.354;2023-12-20T01:05:52;95486.03;;;-1.79;100.00
7834;BME280;3962;42.696;23.354;2023-12-20T01:08:19;95474.53;;;-1.75;100.00
7834;BME280;3962;42.696;23.354;2023-12-20T01:10:47;95464.75;;;-1.70;100.00
7834;BME280;3962;42.696;23.354;2023-12-20T01:13:14;95472.50;;;-1.68;100.00
7834;BME280;3962;42.696;23.354;2023-12-20T01:15:39;95469.31;;;-1.75;100.00
7834;BME280;3962;42.696;23.354;2023-12-20T01:18:07;95461.97;;;-1.67;100.00
7834;BME280;3962;42.696;23.354;2023-12-20T01:20:34;95465.66;;;-1.71;100.00
7834;BME280;3962;42.696;23.354;2023-12-20T01:23:01;95460.78;;;-1.60;100.00
7834;BME280;3962;42.696;23.354;2023-12-20T01:25:28;95455.50;;;-1.40;100.00
7834;BME280;3962;42.696;23.354;2023-12-20T01:27:56;95455.31;;;-1.18;100.00
7834;BME280;3962;42.696;23.354;2023-12-20T01:30:23;95444.47;;;-1.11;100.00
7834;BME280;3962;42.696;23.354;2023-12-20T01:32:50;95445.50;;;-1.13;100.00
7834;BME280;3962;42.696;23.354;2023-12-20T01:35:17;95441.97;;;-1.12;100.00
7834;BME280;3962;42.696;23.354;2023-12-20T01:37:44;95441.16;;;-1.14;100.00
7834;BME280;3962;42.696;23.354;2023-12-20T01:40:11;95435.63;;;-1.25;100.00
7834;BME280;3962;42.696;23.354;2023-12-20T01:42:38;95436.25;;;-1.37;100.00
7834;BME280;3962;42.696;23.354;2023-12-20T01:45:08;95426.16;;;-1.45;100.00
7834;BME280;3962;42.696;23.354;2023-12-20T01:47:35;95423.00;;;-1.51;100.00
7834;BME280;3962;42.696;23.354;2023-12-20T01:50:03;95410.78;;;-1.51;100.00
7834;BME280;3962;42.696;23.354;2023-12-20T01:52:30;95417.81;;;-1.70;100.00
7834;BME280;3962;42.696;23.354;2023-12-20T01:54:59;95414.72;;;-1.78;100.00
7834;BME280;3962;42.696;23.354;2023-12-20T01:57:28;95417.47;;;-1.81;100.00
7834;BME280;3962;42.696;23.354;2023-12-20T01:59:55;95415.34;;;-1.91;100.00
7834;BME280;3962;42.696;23.354;2023-12-20T02:02:26;95409.97;;;-2.07;100.00
7834;BME280;3962;42.696;23.354;2023-12-20T02:04:54;95408.66;;;-2.15;100.00
7834;BME280;3962;42.696;23.354;2023-12-20T02:07:21;95406.16;;;-2.18;100.00
7834;BME280;3962;42.696;23.354;2023-12-20T02:09:49;95406.25;;;-2.20;100.00
7834;BME280;3962;42.696;23.354;2023-12-20T02:12:16;95399.97;;;-2.16;100.00
7834;BME280;3962;42.696;23.354;2023-12-20T02:14:43;95392.88;;;-2.12;100.00
7834;BME280;3962;42.696;23.354;2023-12-20T02:17:10;95399.16;;;-2.16;100.00
7834;BME280;3962;42.696;23.354;2023-12-20T02:19:38;95393.84;;;-2.15;100.00
7834;BME280;3962;42.696;23.354;2023-12-20T02:22:08;95385.25;;;-2.17;100.00
7834;BME280;3962;42.696;23.354;2023-12-20T02:24:35;95385.25;;;-2.17;100.00
7834;BME280;3962;42.696;23.354;2023-12-20T02:27:02;95385.09;;;-2.14;100.00
7834;BME280;3962;42.696;23.354;2023-12-20T02:29:30;95384.88;;;-2.09;100.00
7834;BME280;3962;42.696;23.354;2023-12-20T02:31:57;95381.69;;;-2.14;100.00
7834;BME280;3962;42.696;23.354;2023-12-20T02:34:24;95372.78;;;-2.10;100.00
7834;BME280;3962;42.696;23.354;2023-12-20T02:36:51;95371.84;;;-2.09;100.00
7834;BME280;3962;42.696;23.354;2023-12-20T02:39:19;95370.81;;;-2.05;100.00
7834;BME280;3962;42.696;23.354;2023-12-20T02:41:46;95371.53;;;-2.02;100.00
7834;BME280;3962;42.696;23.354;2023-12-20T02:44:13;95378.56;;;-2.04;100.00
7834;BME280;3962;42.696;23.354;2023-12-20T02:46:40;95361.91;;;-2.01;100.00
7834;BME280;3962;42.696;23.354;2023-12-20T02:49:07;95361.16;;;-2.03;100.00
7834;BME280;3962;42.696;23.354;2023-12-20T02:51:34;95356.94;;;-2.06;100.00
7834;BME280;3962;42.696;23.354;2023-12-20T02:54:03;95362.50;;;-2.13;100.00
7834;BME280;3962;42.696;23.354;2023-12-20T02:56:32;95370.47;;;-2.16;100.00
7834;BME280;3962;42.696;23.354;2023-12-20T02:58:59;95361.59;;;-2.12;100.00
7834;BME280;3962;42.696;23.354;2023-12-20T03:01:26;95364.91;;;-2.09;100.00
7834;BME280;3962;42.696;23.354;2023-12-20T03:03:53;95367.56;;;-2.10;100.00
7834;BME280;3962;42.696;23.354;2023-12-20T03:06:20;95359.91;;;-2.13;100.00
7834;BME280;3962;42.696;23.354;2023-12-20T03:08:47;95368.28;;;-2.07;100.00
7834;BME280;3962;42.696;23.354;2023-12-20T03:11:14;95366.53;;;-2.06;100.00
7834;BME280;3962;42.696;23.354;2023-12-20T03:13:42;95359.97;;;-2.15;100.00
7834;BME280;3962;42.696;23.354;2023-12-20T03:16:09;95351.72;;;-2.06;100.00
7834;BME280;3962;42.696;23.354;2023-12-20T03:18:36;95360.34;;;-2.04;100.00
7834;BME280;3962;42.696;23.354;2023-12-20T03:21:04;95353.88;;;-1.97;100.00
7834;BME280;3962;42.696;23.354;2023-12-20T03:23:31;95350.38;;;-1.96;100.00
7834;BME280;3962;42.696;23.354;2023-12-20T03:25:59;95348.66;;;-1.97;100.00
7834;BME280;3962;42.696;23.354;2023-12-20T03:28:26;95346.00;;;-1.95;100.00
7834;BME280;3962;42.696;23.354;2023-12-20T03:30:54;95348.53;;;-1.94;100.00
7834;BME280;3962;42.696;23.354;2023-12-20T03:33:21;95339.59;;;-1.88;100.00
7834;BME280;3962;42.696;23.354;2023-12-20T03:35:48;95336.75;;;-1.84;100.00
7834;BME280;3962;42.696;23.354;2023-12-20T03:38:15;95344.03;;;-1.90;100.00
7834;BME280;3962;42.696;23.354;2023-12-20T03:40:42;95344.31;;;-1.96;100.00
7834;BME280;3962;42.696;23.354;2023-12-20T03:43:09;95341.28;;;-1.87;100.00
7834;BME280;3962;42.696;23.354;2023-12-20T03:45:36;95329.00;;;-1.85;100.00
7834;BME280;3962;42.696;23.354;2023-12-20T03:48:05;95336.53;;;-1.79;100.00
7834;BME280;3962;42.696;23.354;2023-12-20T03:50:32;95334.16;;;-1.84;100.00
7834;BME280;3962;42.696;23.354;2023-12-20T03:52:59;95333.53;;;-1.89;100.00
7834;BME280;3962;42.696;23.354;2023-12-20T03:55:26;95334.16;;;-1.84;100.00
7834;BME280;3962;42.696;23.354;2023-12-20T03:57:52;95321.81;;;-1.80;100.00
7834;BME280;3962;42.696;23.354;2023-12-20T04:00:19;95330.50;;;-1.80;100.00
7834;BME280;3962;42.696;23.354;2023-12-20T04:02:46;95326.31;;;-1.84;100.00
7834;BME280;3962;42.696;23.354;2023-12-20T04:05:14;95327.47;;;-1.89;100.00
7834;BME280;3962;42.696;23.354;2023-12-20T04:07:41;95317.19;;;-1.92;100.00
7834;BME280;3962;42.696;23.354;2023-12-20T04:10:08;95315.41;;;-1.92;100.00
7834;BME280;3962;42.696;23.354;2023-12-20T04:12:35;95310.91;;;-1.88;100.00
7834;BME280;3962;42.696;23.354;2023-12-20T04:15:03;95315.78;;;-1.81;100.00
7834;BME280;3962;42.696;23.354;2023-12-20T04:17:34;95313.34;;;-1.85;100.00
7834;BME280;3962;42.696;23.354;2023-12-20T04:20:01;95314.38;;;-1.88;100.00
7834;BME280;3962;42.696;23.354;2023-12-20T04:22:30;95308.75;;;-1.97;100.00
7834;BME280;3962;42.696;23.354;2023-12-20T04:24:56;95309.44;;;-1.94;100.00
7834;BME280;3962;42.696;23.354;2023-12-20T04:27:23;95310.28;;;-1.93;100.00
7834;BME280;3962;42.696;23.354;2023-12-20T04:29:50;95301.75;;;-1.97;100.00
7834;BME280;3962;42.696;23.354;2023-12-20T04:32:17;95301.75;;;-1.97;100.00
7834;BME280;3962;42.696;23.354;2023-12-20T04:34:44;95293.59;;;-2.08;100.00
7834;BME280;3962;42.696;23.354;2023-12-20T04:37:10;95288.41;;;-2.26;100.00
7834;BME280;3962;42.696;23.354;2023-12-20T04:39:39;95289.91;;;-2.39;100.00
7834;BME280;3962;42.696;23.354;2023-12-20T04:42:07;95291.38;;;-2.52;100.00
7834;BME280;3962;42.696;23.354;2023-12-20T04:44:34;95292.56;;;-2.59;100.00
7834;BME280;3962;42.696;23.354;2023-12-20T04:47:00;95284.97;;;-2.64;100.00
7834;BME280;3962;42.696;23.354;2023-12-20T04:49:27;95296.75;;;-2.55;100.00
7834;BME280;3962;42.696;23.354;2023-12-20T04:51:54;95291.13;;;-2.46;100.00
7834;BME280;3962;42.696;23.354;2023-12-20T04:54:21;95283.16;;;-2.43;100.00
7834;BME280;3962;42.696;23.354;2023-12-20T04:56:49;95280.69;;;-2.46;100.00
7834;BME280;3962;42.696;23.354;2023-12-20T04:59:16;95289.34;;;-2.46;100.00
7834;BME280;3962;42.696;23.354;2023-12-20T05:01:43;95292.31;;;-2.53;100.00
7834;BME280;3962;42.696;23.354;2023-12-20T05:04:10;95286.44;;;-2.58;100.00
7834;BME280;3962;42.696;23.354;2023-12-20T05:06:37;95283.13;;;-2.62;100.00
7834;BME280;3962;42.696;23.354;2023-12-20T05:09:03;95284.28;;;-2.67;100.00
7834;BME280;3962;42.696;23.354;2023-12-20T05:11:30;95276.78;;;-2.56;100.00
7834;BME280;3962;42.696;23.354;2023-12-20T05:13:59;95268.16;;;-2.57;100.00
7834;BME280;3962;42.696;23.354;2023-12-20T05:16:25;95272.78;;;-2.45;100.00
7834;BME280;3962;42.696;23.354;2023-12-20T05:18:52;95283.78;;;-2.38;100.00
7834;BME280;3962;42.696;23.354;2023-12-20T05:21:20;95266.31;;;-2.36;100.00
7834;BME280;3962;42.696;23.354;2023-12-20T05:23:46;95261.59;;;-2.47;100.00
7834;BME280;3962;42.696;23.354;2023-12-20T05:26:13;95268.38;;;-2.43;100.00
7834;BME280;3962;42.696;23.354;2023-12-20T05:28:40;95268.00;;;-2.54;100.00
7834;BME280;3962;42.696;23.354;2023-12-20T05:31:11;95268.59;;;-2.47;100.00
7834;BME280;3962;42.696;23.354;2023-12-20T05:33:38;95258.56;;;-2.38;100.00
7834;BME280;3962;42.696;23.354;2023-12-20T05:36:05;95260.44;;;-2.23;100.00
7834;BME280;3962;42.696;23.354;2023-12-20T05:38:36;95264.47;;;-2.16;100.00
7834;BME280;3962;42.696;23.354;2023-12-20T05:41:03;95254.78;;;-2.14;100.00
7834;BME280;3962;42.696;23.354;2023-12-20T05:43:30;95253.50;;;-2.22;100.00
7834;BME280;3962;42.696;23.354;2023-12-20T05:45:57;95257.41;;;-2.32;100.00
7834;BME280;3962;42.696;23.354;2023-12-20T05:48:25;95252.31;;;-2.34;100.00
7834;BME280;3962;42.696;23.354;2023-12-20T05:50:53;95252.41;;;-2.18;100.00
7834;BME280;3962;42.696;23.354;2023-12-20T05:53:20;95243.53;;;-2.14;100.00
7834;BME280;3962;42.696;23.354;2023-12-20T05:55:47;95245.09;;;-2.29;100.00
7834;BME280;3962;42.696;23.354;2023-12-20T05:58:14;95248.19;;;-2.21;100.00
7834;BME280;3962;42.696;23.354;2023-12-20T06:00:41;95242.69;;;-2.15;100.00
7834;BME280;3962;42.696;23.354;2023-12-20T06:03:08;95231.50;;;-2.17;100.00
7834;BME280;3962;42.696;23.354;2023-12-20T06:05:38;95241.16;;;-2.19;100.00
7834;BME280;3962;42.696;23.354;2023-12-20T06:08:06;95228.66;;;-2.12;100.00
7834;BME280;3962;42.696;23.354;2023-12-20T06:10:33;95235.44;;;-2.08;100.00
7834;BME280;3962;42.696;23.354;2023-12-20T06:13:00;95236.56;;;-1.97;100.00
7834;BME280;3962;42.696;23.354;2023-12-20T06:15:27;95232.84;;;-1.74;100.00
7834;BME280;3962;42.696;23.354;2023-12-20T06:17:54;95241.13;;;-1.66;100.00
7834;BME280;3962;42.696;23.354;2023-12-20T06:20:21;95239.13;;;-1.95;100.00
7834;BME280;3962;42.696;23.354;2023-12-20T06:22:49;95242.63;;;-2.13;100.00
7834;BME280;3962;42.696;23.354;2023-12-20T06:25:16;95242.09;;;-2.03;100.00
7834;BME280;3962;42.696;23.354;2023-12-20T06:27:44;95241.41;;;-2.06;100.00
7834;BME280;3962;42.696;23.354;2023-12-20T06:30:11;95235.28;;;-2.05;100.00
7834;BME280;3962;42.696;23.354;2023-12-20T06:32:39;95239.41;;;-2.01;100.00
7834;BME280;3962;42.696;23.354;2023-12-20T06:35:08;95236.84;;;-1.84;100.00
7834;BME280;3962;42.696;23.354;2023-12-20T06:37:35;95231.69;;;-1.69;100.00
7834;BME280;3962;42.696;23.354;2023-12-20T06:40:10;95233.69;;;-1.74;100.00
7834;BME280;3962;42.696;23.354;2023-12-20T06:42:37;95233.78;;;-1.58;100.00
7834;BME280;3962;42.696;23.354;2023-12-20T06:45:06;95222.41;;;-1.57;100.00
7834;BME280;3962;42.696;23.354;2023-12-20T06:47:33;95228.16;;;-1.51;100.00
7834;BME280;3962;42.696;23.354;2023-12-20T06:50:00;95213.28;;;-1.83;100.00
7834;BME280;3962;42.696;23.354;2023-12-20T06:52:28;95215.75;;;-1.63;100.00
7834;BME280;3962;42.696;23.354;2023-12-20T06:54:56;95211.66;;;-1.34;100.00
7834;BME280;3962;42.696;23.354;2023-12-20T06:57:26;95213.31;;;-1.16;100.00
7834;BME280;3962;42.696;23.354;2023-12-20T06:59:56;95217.53;;;-1.14;100.00
7834;BME280;3962;42.696;23.354;2023-12-20T07:02:25;95209.72;;;-1.31;100.00
7834;BME280;3962;42.696;23.354;2023-12-20T07:04:56;95209.09;;;-1.19;100.00
7834;BME280;3962;42.696;23.354;2023-12-20T07:07:23;95204.66;;;-1.17;100.00
7834;BME280;3962;42.696;23.354;2023-12-20T07:09:51;95207.09;;;-0.98;100.00
7834;BME280;3962;42.696;23.354;2023-12-20T07:12:18;95210.94;;;-0.88;100.00
7834;BME280;3962;42.696;23.354;2023-12-20T07:14:47;95207.56;;;-0.90;100.00
7834;BME280;3962;42.696;23.354;2023-12-20T07:17:15;95195.84;;;-0.83;100.00
7834;BME280;3962;42.696;23.354;2023-12-20T07:19:42;95200.34;;;-0.70;100.00
7834;BME280;3962;42.696;23.354;2023-12-20T07:22:09;95194.28;;;-0.70;100.00
7834;BME280;3962;42.696;23.354;2023-12-20T07:24:36;95198.25;;;-0.63;100.00
7834;BME280;3962;42.696;23.354;2023-12-20T07:27:03;95195.63;;;-0.63;100.00
7834;BME280;3962;42.696;23.354;2023-12-20T07:29:31;95191.84;;;-0.42;100.00
7834;BME280;3962;42.696;23.354;2023-12-20T07:32:02;95193.84;;;-0.32;100.00
7834;BME280;3962;42.696;23.354;2023-12-20T07:34:30;95185.69;;;-0.41;100.00
7834;BME280;3962;42.696;23.354;2023-12-20T07:36:58;95191.25;;;-0.47;100.00
7834;BME280;3962;42.696;23.354;2023-12-20T07:39:25;95191.00;;;-0.43;100.00
7834;BME280;3962;42.696;23.354;2023-12-20T07:41:54;95184.41;;;-0.50;99.67
7834;BME280;3962;42.696;23.354;2023-12-20T07:44:21;95186.94;;;-0.48;99.54
7834;BME280;3962;42.696;23.354;2023-12-20T07:46:48;95192.84;;;-0.45;99.32
7834;BME280;3962;42.696;23.354;2023-12-20T07:49:17;95184.34;;;-0.48;99.36
7834;BME280;3962;42.696;23.354;2023-12-20T07:51:49;95185.84;;;-0.44;99.30
7834;BME280;3962;42.696;23.354;2023-12-20T07:54:16;95176.56;;;-0.50;99.39
7834;BME280;3962;42.696;23.354;2023-12-20T07:56:43;95181.13;;;-0.53;99.16
7834;BME280;3962;42.696;23.354;2023-12-20T07:59:10;95187.22;;;-0.53;100.00
7834;BME280;3962;42.696;23.354;2023-12-20T08:01:37;95180.97;;;-0.50;99.30
7834;BME280;3962;42.696;23.354;2023-12-20T08:04:05;95180.63;;;-0.44;100.00
7834;BME280;3962;42.696;23.354;2023-12-20T08:06:34;95173.97;;;-0.34;100.00
7834;BME280;3962;42.696;23.354;2023-12-20T08:09:02;95176.25;;;-0.44;100.00
7834;BME280;3962;42.696;23.354;2023-12-20T08:11:29;95177.94;;;-0.43;100.00
7834;BME280;3962;42.696;23.354;2023-12-20T08:13:57;95177.94;;;-0.27;100.00
7834;BME280;3962;42.696;23.354;2023-12-20T08:16:24;95178.09;;;-0.15;100.00
7834;BME280;3962;42.696;23.354;2023-12-20T08:18:51;95163.81;;;-0.09;100.00
7834;BME280;3962;42.696;23.354;2023-12-20T08:21:21;95155.44;;;-0.01;100.00
7834;BME280;3962;42.696;23.354;2023-12-20T08:23:50;95156.03;;;0.04;99.73
7834;BME280;3962;42.696;23.354;2023-12-20T08:26:18;95169.66;;;0.09;100.00
7834;BME280;3962;42.696;23.354;2023-12-20T08:28:47;95166.63;;;0.17;99.10
7834;BME280;3962;42.696;23.354;2023-12-20T08:31:14;95163.59;;;0.09;98.76
7834;BME280;3962;42.696;23.354;2023-12-20T08:33:43;95157.66;;;0.21;100.00
7834;BME280;3962;42.696;23.354;2023-12-20T08:36:10;95146.34;;;0.20;99.37
7834;BME280;3962;42.696;23.354;2023-12-20T08:38:37;95145.28;;;0.09;99.61
7834;BME280;3962;42.696;23.354;2023-12-20T08:41:06;95146.38;;;0.05;99.27
7834;BME280;3962;42.696;23.354;2023-12-20T08:43:34;95145.16;;;-0.03;99.12
7834;BME280;3962;42.696;23.354;2023-12-20T08:46:02;95130.63;;;-0.09;100.00
7834;BME280;3962;42.696;23.354;2023-12-20T08:48:28;95132.25;;;-0.07;100.00
7834;BME280;3962;42.696;23.354;2023-12-20T08:50:56;95122.38;;;-0.02;100.00
7834;BME280;3962;42.696;23.354;2023-12-20T08:53:23;95129.19;;;0.01;100.00
7834;BME280;3962;42.696;23.354;2023-12-20T08:55:50;95120.97;;;0.07;100.00
7834;BME280;3962;42.696;23.354;2023-12-20T08:58:19;95135.56;;;0.11;100.00
7834;BME280;3962;42.696;23.354;2023-12-20T09:00:48;95116.25;;;0.13;100.00
7834;BME280;3962;42.696;23.354;2023-12-20T09:03:16;95097.09;;;0.13;100.00
7834;BME280;3962;42.696;23.354;2023-12-20T09:05:43;95094.69;;;0.24;100.00
7834;BME280;3962;42.696;23.354;2023-12-20T09:08:09;95095.09;;;0.32;100.00
7834;BME280;3962;42.696;23.354;2023-12-20T09:10:37;95085.81;;;0.40;100.00
7834;BME280;3962;42.696;23.354;2023-12-20T09:13:04;95082.19;;;0.43;100.00
7834;BME280;3962;42.696;23.354;2023-12-20T09:15:32;95063.00;;;0.42;100.00
7834;BME280;3962;42.696;23.354;2023-12-20T09:18:01;95062.94;;;0.58;100.00
7834;BME280;3962;42.696;23.354;2023-12-20T09:20:31;95058.25;;;0.63;99.52
7834;BME280;3962;42.696;23.354;2023-12-20T09:22:59;95043.59;;;0.60;98.85
7834;BME280;3962;42.696;23.354;2023-12-20T09:25:26;95046.66;;;0.53;99.61
7834;BME280;3962;42.696;23.354;2023-12-20T09:27:56;95037.50;;;0.60;99.99
7834;BME280;3962;42.696;23.354;2023-12-20T09:30:24;95036.56;;;0.61;98.84
7834;BME280;3962;42.696;23.354;2023-12-20T09:32:53;95033.69;;;0.51;98.32
7834;BME280;3962;42.696;23.354;2023-12-20T09:35:20;95030.31;;;0.49;99.07
7834;BME280;3962;42.696;23.354;2023-12-20T09:37:50;95016.28;;;0.50;98.95
7834;BME280;3962;42.696;23.354;2023-12-20T09:40:19;95026.66;;;0.66;99.34
7834;BME280;3962;42.696;23.354;2023-12-20T09:42:48;95012.34;;;0.71;99.11
7834;BME280;3962;42.696;23.354;2023-12-20T09:45:20;95005.78;;;0.78;99.04
7834;BME280;3962;42.696;23.354;2023-12-20T09:47:49;94994.56;;;0.76;99.23
7834;BME280;3962;42.696;23.354;2023-12-20T09:50:18;94996.69;;;0.84;99.41
7834;BME280;3962;42.696;23.354;2023-12-20T09:52:49;94996.09;;;0.93;99.50
7834;BME280;3962;42.696;23.354;2023-12-20T09:55:17;94993.69;;;0.90;98.98
7834;BME280;3962;42.696;23.354;2023-12-20T09:57:44;94986.13;;;0.85;99.63
7834;BME280;3962;42.696;23.354;2023-12-20T10:00:13;94980.97;;;0.84;99.45
7834;BME280;3962;42.696;23.354;2023-12-20T10:02:45;94975.94;;;0.81;99.84
7834;BME280;3962;42.696;23.354;2023-12-20T10:05:18;94979.09;;;0.86;99.79
7834;BME280;3962;42.696;23.354;2023-12-20T10:07:52;94965.28;;;0.84;100.00
7834;BME280;3962;42.696;23.354;2023-12-20T10:10:19;94979.53;;;1.06;99.86
7834;BME280;3962;42.696;23.354;2023-12-20T10:13:01;94966.53;;;1.05;99.30
7834;BME280;3962;42.696;23.354;2023-12-20T10:15:30;94961.81;;;1.10;100.00
7834;BME280;3962;42.696;23.354;2023-12-20T10:17:57;94954.25;;;1.05;99.28
7834;BME280;3962;42.696;23.354;2023-12-20T10:20:26;94952.09;;;1.12;100.00
7834;BME280;3962;42.696;23.354;2023-12-20T10:22:54;94935.19;;;1.03;99.84
7834;BME280;3962;42.696;23.354;2023-12-20T10:25:22;94942.69;;;1.22;100.00
7834;BME280;3962;42.696;23.354;2023-12-20T10:27:50;94937.47;;;1.34;100.00
7834;BME280;3962;42.696;23.354;2023-12-20T10:30:17;94933.94;;;1.48;98.38
7834;BME280;3962;42.696;23.354;2023-12-20T10:32:44;94924.53;;;1.58;98.96
7834;BME280;3962;42.696;23.354;2023-12-20T10:35:13;94917.59;;;1.57;97.77
7834;BME280;3962;42.696;23.354;2023-12-20T10:37:42;94916.25;;;1.76;97.76
7834;BME280;3962;42.696;23.354;2023-12-20T10:40:09;94919.72;;;1.77;97.54
7834;BME280;3962;42.696;23.354;2023-12-20T10:42:37;94921.72;;;1.98;97.19
7834;BME280;3962;42.696;23.354;2023-12-20T10:45:08;94920.88;;;1.98;96.68
7834;BME280;3962;42.696;23.354;2023-12-20T10:47:36;94903.88;;;2.16;96.32
7834;BME280;3962;42.696;23.354;2023-12-20T10:50:05;94900.53;;;2.14;95.37
7834;BME280;3962;42.696;23.354;2023-12-20T10:52:34;94900.94;;;2.08;94.85
7834;BME280;3962;42.696;23.354;2023-12-20T10:55:04;94903.34;;;1.98;94.36
7834;BME280;3962;42.696;23.354;2023-12-20T10:57:32;94891.09;;;1.99;94.54
7834;BME280;3962;42.696;23.354;2023-12-20T11:00:01;94886.66;;;1.99;94.98
7834;BME280;3962;42.696;23.354;2023-12-20T11:02:32;94881.19;;;2.15;95.46
7834;BME280;3962;42.696;23.354;2023-12-20T11:05:04;94873.66;;;2.10;94.77
7834;BME280;3962;42.696;23.354;2023-12-20T11:07:43;94867.44;;;2.11;95.54
7834;BME280;3962;42.696;23.354;2023-12-20T11:10:20;94873.03;;;2.07;95.20
7834;BME280;3962;42.696;23.354;2023-12-20T11:12:52;94863.50;;;1.93;95.65
7834;BME280;3962;42.696;23.354;2023-12-20T11:15:21;94859.34;;;2.14;96.26
7834;BME280;3962;42.696;23.354;2023-12-20T11:17:54;94860.22;;;2.15;96.09
7834;BME280;3962;42.696;23.354;2023-12-20T11:20:23;94854.94;;;2.27;95.39
7834;BME280;3962;42.696;23.354;2023-12-20T11:22:54;94849.44;;;2.30;95.57
7834;BME280;3962;42.696;23.354;2023-12-20T11:25:23;94844.72;;;2.35;95.28
7834;BME280;3962;42.696;23.354;2023-12-20T11:28:09;94822.72;;;2.25;95.66
7834;BME280;3962;42.696;23.354;2023-12-20T11:30:45;94826.75;;;2.06;96.25
7834;BME280;3962;42.696;23.354;2023-12-20T11:33:13;94807.56;;;1.93;96.93
7834;BME280;3962;42.696;23.354;2023-12-20T11:35:40;94805.31;;;1.99;97.04
7834;BME280;3962;42.696;23.354;2023-12-20T11:38:08;94805.84;;;2.04;96.93
7834;BME280;3962;42.696;23.354;2023-12-20T11:40:37;94789.22;;;2.16;97.26
7834;BME280;3962;42.696;23.354;2023-12-20T11:43:04;94785.44;;;2.20;97.03
7834;BME280;3962;42.696;23.354;2023-12-20T11:45:31;94782.53;;;2.12;96.67
7834;BME280;3962;42.696;23.354;2023-12-20T11:48:02;94790.00;;;2.06;97.81
7834;BME280;3962;42.696;23.354;2023-12-20T11:50:29;94776.41;;;1.88;98.35
7834;BME280;3962;42.696;23.354;2023-12-20T11:52:57;94771.28;;;1.74;98.46
7834;BME280;3962;42.696;23.354;2023-12-20T11:55:24;94764.69;;;1.69;99.69
7834;BME280;3962;42.696;23.354;2023-12-20T11:57:53;94762.19;;;1.55;100.00
7834;BME280;3962;42.696;23.354;2023-12-20T12:00:19;94763.56;;;1.48;100.00
7834;BME280;3962;42.696;23.354;2023-12-20T12:02:57;94751.50;;;1.45;100.00
7834;BME280;3962;42.696;23.354;2023-12-20T12:05:24;94753.53;;;1.42;100.00
7834;BME280;3962;42.696;23.354;2023-12-20T12:07:51;94738.50;;;1.44;100.00
7834;BME280;3962;42.696;23.354;2023-12-20T12:10:18;94718.69;;;1.27;100.00
7834;BME280;3962;42.696;23.354;2023-12-20T12:12:45;94733.59;;;1.39;100.00
7834;BME280;3962;42.696;23.354;2023-12-20T12:15:16;94729.16;;;1.40;100.00
7834;BME280;3962;42.696;23.354;2023-12-20T12:17:43;94734.63;;;1.49;100.00
7834;BME280;3962;42.696;23.354;2023-12-20T12:20:10;94720.59;;;1.38;100.00
7834;BME280;3962;42.696;23.354;2023-12-20T12:22:38;94716.50;;;1.46;100.00
7834;BME280;3962;42.696;23.354;2023-12-20T12:25:11;94717.84;;;1.52;100.00
7834;BME280;3962;42.696;23.354;2023-12-20T12:27:40;94709.34;;;1.48;100.00
7834;BME280;3962;42.696;23.354;2023-12-20T12:30:09;94718.47;;;1.55;100.00
7834;BME280;3962;42.696;23.354;2023-12-20T12:32:40;94709.53;;;1.70;100.00
7834;BME280;3962;42.696;23.354;2023-12-20T12:35:08;94717.56;;;1.80;100.00
7834;BME280;3962;42.696;23.354;2023-12-20T12:37:37;94712.22;;;1.81;100.00
7834;BME280;3962;42.696;23.354;2023-12-20T12:40:06;94709.78;;;1.91;100.00
7834;BME280;3962;42.696;23.354;2023-12-20T12:42:36;94709.00;;;2.01;100.00
7834;BME280;3962;42.696;23.354;2023-12-20T12:45:04;94708.97;;;2.14;100.00
7834;BME280;3962;42.696;23.354;2023-12-20T12:47:31;94701.41;;;2.09;100.00
7834;BME280;3962;42.696;23.354;2023-12-20T12:50:02;94701.97;;;2.02;100.00
7834;BME280;3962;42.696;23.354;2023-12-20T12:52:30;94697.09;;;1.85;100.00
7834;BME280;3962;42.696;23.354;2023-12-20T12:54:57;94697.75;;;1.76;100.00
7834;BME280;3962;42.696;23.354;2023-12-20T12:57:24;94703.63;;;1.79;100.00
7834;BME280;3962;42.696;23.354;2023-12-20T12:59:52;94696.41;;;1.70;100.00
7834;BME280;3962;42.696;23.354;2023-12-20T13:02:19;94691.94;;;1.60;100.00
7834;BME280;3962;42.696;23.354;2023-12-20T13:04:46;94697.28;;;1.58;100.00
7834;BME280;3962;42.696;23.354;2023-12-20T13:07:14;94681.25;;;1.50;100.00
7834;BME280;3962;42.696;23.354;2023-12-20T13:09:41;94684.59;;;1.52;100.00
7834;BME280;3962;42.696;23.354;2023-12-20T13:12:08;94691.31;;;1.56;100.00